createdAt,value
2018-03-26T00:01:24.851Z,92.40
2018-03-26T00:03:52.511Z,92.30
2018-03-26T00:06:20.270Z,92.40
2018-03-26T00:08:47.931Z,92.50
2018-03-26T00:11:15.599Z,92.40
2018-03-26T00:13:43.290Z,92.20
2018-03-26T00:16:10.929Z,92.00
2018-03-26T00:18:38.666Z,91.80
2018-03-26T00:21:06.435Z,91.70
2018-03-26T00:23:34.090Z,91.60
2018-03-26T00:26:01.841Z,91.60
2018-03-26T00:28:29.516Z,91.60
2018-03-26T00:30:57.154Z,91.70
2018-03-26T00:33:24.768Z,91.80
2018-03-26T00:35:53.438Z,91.80
2018-03-26T00:38:21.081Z,91.70
2018-03-26T00:40:48.748Z,91.80
2018-03-26T00:43:16.493Z,92.00
2018-03-26T00:45:45.096Z,92.00
2018-03-26T00:48:12.758Z,92.00
2018-03-26T00:50:40.497Z,91.90
2018-03-26T00:53:08.158Z,91.80
2018-03-26T00:55:35.811Z,91.90
2018-03-26T00:58:05.241Z,91.80
2018-03-26T01:00:33.167Z,91.70
2018-03-26T01:03:03.350Z,91.70
2018-03-26T01:05:31.492Z,91.90
2018-03-26T01:07:59.452Z,92.10
2018-03-26T01:10:28.060Z,92.10
2018-03-26T01:15:32.022Z,93.30
2018-03-26T01:18:00.013Z,93.60
2018-03-26T01:20:28.471Z,93.70
2018-03-26T01:22:58.941Z,94.00
2018-03-26T01:25:29.225Z,94.20
2018-03-26T01:27:57.339Z,94.30
2018-03-26T01:30:25.213Z,94.10
2018-03-26T01:32:53.064Z,93.90
2018-03-26T01:35:20.928Z,93.90
2018-03-26T01:37:48.571Z,93.80
2018-03-26T01:40:18.237Z,93.50
2018-03-26T01:42:48.117Z,93.40
2018-03-26T01:45:15.902Z,93.60
2018-03-26T01:47:43.564Z,93.70
2018-03-26T01:50:12.162Z,93.60
2018-03-26T01:52:39.740Z,93.40
2018-03-26T01:55:08.158Z,93.60
2018-03-26T01:57:36.531Z,93.70
2018-03-26T02:00:05.155Z,93.70
2018-03-26T02:02:32.753Z,93.80
2018-03-26T02:05:01.256Z,93.90
2018-03-26T02:07:28.874Z,93.80
2018-03-26T02:09:56.693Z,93.90
2018-03-26T02:12:24.365Z,93.90
2018-03-26T02:14:51.981Z,93.80
2018-03-26T02:17:20.060Z,93.70
2018-03-26T02:19:48.127Z,94.10
2018-03-26T02:22:15.835Z,93.80
2018-03-26T02:24:44.043Z,94.00
2018-03-26T02:27:11.967Z,94.20
2018-03-26T02:29:39.752Z,94.40
2018-03-26T02:32:08.423Z,94.40
2018-03-26T02:34:36.154Z,94.40
2018-03-26T02:37:05.307Z,94.60
2018-03-26T02:39:33.025Z,94.60
2018-03-26T02:42:00.658Z,94.40
2018-03-26T02:44:28.255Z,95.00
2018-03-26T02:46:55.880Z,95.00
2018-03-26T02:49:23.543Z,94.70
2018-03-26T02:51:51.848Z,95.20
2018-03-26T02:54:20.325Z,95.30
2018-03-26T02:56:47.996Z,95.20
2018-03-26T02:59:15.644Z,95.20
2018-03-26T03:01:45.371Z,95.30
2018-03-26T03:04:15.522Z,95.00
2018-03-26T03:06:43.268Z,95.00
2018-03-26T03:09:10.923Z,95.30
2018-03-26T03:11:38.840Z,95.30
2018-03-26T03:14:06.574Z,95.20
2018-03-26T03:16:34.240Z,95.20
2018-03-26T03:19:01.903Z,95.30
2018-03-26T03:21:29.566Z,95.20
2018-03-26T03:23:57.284Z,95.40
2018-03-26T03:26:25.155Z,95.10
2018-03-26T03:28:52.884Z,95.30
2018-03-26T03:31:20.619Z,95.60
2018-03-26T03:33:48.269Z,95.50
2018-03-26T03:36:15.962Z,95.30
2018-03-26T03:38:44.496Z,95.20
2018-03-26T03:41:13.201Z,95.30
2018-03-26T03:43:40.854Z,95.30
2018-03-26T03:46:09.231Z,95.00
2018-03-26T03:48:36.845Z,95.00
2018-03-26T03:51:04.498Z,95.10
2018-03-26T03:53:32.116Z,95.10
2018-03-26T03:55:59.714Z,94.90
2018-03-26T03:58:27.344Z,94.80
2018-03-26T04:00:54.942Z,94.80
2018-03-26T04:03:24.272Z,94.80
2018-03-26T04:05:51.950Z,94.70
2018-03-26T04:08:19.600Z,94.80
2018-03-26T04:10:47.364Z,95.10
2018-03-26T04:13:14.993Z,95.30
2018-03-26T04:15:43.464Z,95.60
2018-03-26T04:18:11.182Z,95.60
2018-03-26T04:20:38.907Z,95.40
2018-03-26T04:23:07.518Z,95.30
2018-03-26T04:25:36.817Z,94.80
2018-03-26T04:28:04.516Z,94.80
2018-03-26T04:30:32.173Z,95.00
2018-03-26T04:32:59.793Z,94.60
2018-03-26T04:35:28.278Z,94.70
2018-03-26T04:37:55.878Z,94.60
2018-03-26T04:40:24.303Z,94.50
2018-03-26T04:42:52.836Z,94.50
2018-03-26T04:45:21.246Z,94.40
2018-03-26T04:47:48.915Z,94.40
2018-03-26T04:50:16.702Z,94.70
2018-03-26T04:52:45.750Z,94.20
2018-03-26T04:55:13.382Z,94.30
2018-03-26T04:57:41.022Z,94.40
2018-03-26T05:00:08.654Z,94.50
2018-03-26T05:02:36.269Z,94.40
2018-03-26T05:05:03.995Z,94.50
2018-03-26T05:07:33.361Z,94.50
2018-03-26T05:10:01.981Z,94.50
2018-03-26T05:12:33.644Z,94.70
2018-03-26T05:15:02.138Z,94.90
2018-03-26T05:17:29.869Z,94.90
2018-03-26T05:19:57.483Z,94.90
2018-03-26T05:22:25.981Z,94.60
2018-03-26T05:24:53.614Z,94.70
2018-03-26T05:27:21.970Z,94.40
2018-03-26T05:29:49.569Z,94.20
2018-03-26T05:32:17.962Z,94.30
2018-03-26T05:34:45.657Z,94.30
2018-03-26T05:37:13.274Z,94.50
2018-03-26T05:39:41.009Z,94.90
2018-03-26T05:42:08.613Z,95.40
2018-03-26T05:44:36.230Z,94.90
2018-03-26T05:47:04.801Z,95.00
2018-03-26T05:49:32.707Z,94.70
2018-03-26T05:52:00.385Z,94.30
2018-03-26T05:54:28.769Z,94.70
2018-03-26T05:56:56.409Z,94.70
2018-03-26T05:59:24.036Z,94.50
2018-03-26T06:01:51.654Z,94.70
2018-03-26T06:04:19.292Z,94.50
2018-03-26T06:06:46.915Z,94.50
2018-03-26T06:09:14.577Z,94.80
2018-03-26T06:11:43.411Z,94.30
2018-03-26T06:14:11.817Z,94.20
2018-03-26T06:16:51.282Z,94.30
2018-03-26T06:19:19.816Z,94.20
2018-03-26T06:21:47.481Z,94.20
2018-03-26T06:24:15.090Z,93.90
2018-03-26T06:26:43.766Z,94.00
2018-03-26T06:29:11.464Z,94.10
2018-03-26T06:31:39.077Z,94.10
2018-03-26T06:34:06.782Z,94.00
2018-03-26T06:36:39.959Z,94.00
2018-03-26T06:39:13.275Z,93.90
2018-03-26T06:41:42.743Z,94.20
2018-03-26T06:44:13.658Z,94.20
2018-03-26T06:46:42.362Z,94.60
2018-03-26T06:49:10.039Z,94.00
2018-03-26T06:51:37.742Z,94.00
2018-03-26T06:54:05.400Z,94.30
2018-03-26T06:56:33.027Z,94.00
2018-03-26T06:59:00.822Z,93.90
2018-03-26T07:01:33.365Z,94.00
2018-03-26T07:04:02.891Z,94.10
2018-03-26T07:06:30.708Z,94.20
2018-03-26T07:08:59.195Z,94.10
2018-03-26T07:11:26.956Z,94.00
2018-03-26T07:13:55.463Z,94.20
2018-03-26T07:16:24.724Z,94.00
2018-03-26T07:18:53.457Z,94.00
2018-03-26T07:21:21.983Z,93.90
2018-03-26T07:23:49.805Z,93.90
2018-03-26T07:26:17.583Z,93.70
2018-03-26T07:28:45.491Z,93.80
2018-03-26T07:31:13.164Z,93.40
2018-03-26T07:33:41.044Z,93.90
2018-03-26T07:36:08.769Z,93.60
2018-03-26T07:38:37.281Z,93.60
2018-03-26T07:41:06.103Z,93.40
2018-03-26T07:43:33.876Z,93.40
2018-03-26T07:46:03.950Z,93.60
2018-03-26T07:48:33.055Z,93.90
2018-03-26T07:51:00.820Z,93.90
2018-03-26T07:53:29.314Z,93.40
2018-03-26T07:55:58.165Z,93.40
2018-03-26T07:58:26.827Z,93.10
2018-03-26T08:00:55.026Z,93.00
2018-03-26T08:03:23.218Z,93.10
2018-03-26T08:05:50.976Z,93.00
2018-03-26T08:08:21.509Z,92.90
2018-03-26T08:10:49.247Z,92.90
2018-03-26T08:13:17.305Z,92.60
2018-03-26T08:15:45.049Z,92.50
2018-03-26T08:18:13.069Z,92.50
2018-03-26T08:20:40.832Z,92.10
2018-03-26T08:23:08.757Z,92.10
2018-03-26T08:25:37.314Z,92.00
2018-03-26T08:28:06.486Z,91.90
2018-03-26T08:30:34.796Z,91.70
2018-03-26T08:33:02.876Z,92.10
2018-03-26T08:35:31.218Z,91.90
2018-03-26T08:37:58.893Z,92.30
2018-03-26T08:40:26.585Z,91.80
2018-03-26T08:42:54.613Z,92.20
2018-03-26T08:45:22.453Z,92.20
2018-03-26T08:47:51.013Z,92.00
2018-03-26T08:50:18.716Z,92.00
2018-03-26T08:52:46.441Z,91.90
2018-03-26T08:55:14.193Z,92.50
2018-03-26T08:57:41.857Z,91.60
2018-03-26T09:00:10.265Z,91.50
2018-03-26T09:02:37.907Z,91.50
2018-03-26T09:05:06.151Z,91.60
2018-03-26T09:07:34.552Z,91.10
2018-03-26T09:10:03.062Z,90.70
2018-03-26T09:12:30.702Z,90.60
2018-03-26T09:14:58.398Z,90.50
2018-03-26T09:17:26.314Z,90.40
2018-03-26T09:19:53.954Z,90.10
2018-03-26T09:22:21.864Z,89.80
2018-03-26T09:24:53.364Z,90.30
2018-03-26T09:27:21.117Z,90.30
2018-03-26T09:29:49.193Z,90.00
2018-03-26T09:32:18.261Z,90.40
2018-03-26T09:34:48.594Z,90.50
2018-03-26T09:37:17.417Z,90.50
2018-03-26T09:39:45.272Z,90.10
2018-03-26T09:42:13.198Z,90.10
2018-03-26T09:44:40.814Z,90.40
2018-03-26T09:47:08.472Z,90.60
2018-03-26T09:49:36.115Z,90.40
2018-03-26T09:52:04.615Z,90.50
2018-03-26T09:54:32.280Z,90.70
2018-03-26T09:57:00.754Z,89.80
2018-03-26T09:59:28.422Z,89.80
2018-03-26T10:01:57.836Z,88.50
2018-03-26T10:04:26.251Z,88.20
2018-03-26T10:06:53.896Z,89.00
2018-03-26T10:09:21.545Z,88.60
2018-03-26T10:11:49.138Z,89.00
2018-03-26T10:14:16.758Z,89.00
2018-03-26T10:16:44.371Z,88.60
2018-03-26T10:19:11.946Z,88.80
2018-03-26T10:21:40.353Z,88.30
2018-03-26T10:24:08.020Z,88.20
2018-03-26T10:26:35.659Z,87.60
2018-03-26T10:29:04.103Z,86.80
2018-03-26T10:31:31.750Z,86.70
2018-03-26T10:34:01.354Z,86.00
2018-03-26T10:36:28.968Z,86.00
2018-03-26T10:38:56.684Z,86.20
2018-03-26T10:41:24.308Z,86.30
2018-03-26T10:43:52.884Z,87.00
2018-03-26T10:46:20.478Z,86.90
2018-03-26T10:48:48.856Z,85.40
2018-03-26T10:51:17.257Z,85.00
2018-03-26T10:53:44.864Z,84.90
2018-03-26T10:56:12.508Z,84.10
2018-03-26T10:58:41.808Z,83.50
2018-03-26T11:01:09.498Z,83.50
2018-03-26T11:03:37.096Z,83.10
2018-03-26T11:06:04.697Z,82.10
2018-03-26T11:08:32.285Z,83.20
2018-03-26T11:10:59.918Z,80.50
2018-03-26T11:13:27.527Z,79.30
2018-03-26T11:15:55.168Z,77.90
2018-03-26T11:18:22.839Z,76.90
2018-03-26T11:20:50.479Z,76.60
2018-03-26T11:23:18.978Z,74.80
2018-03-26T11:25:46.627Z,74.70
2018-03-26T11:28:14.250Z,75.40
2018-03-26T11:30:42.158Z,74.90
2018-03-26T11:33:09.791Z,75.00
2018-03-26T11:35:37.530Z,74.70
2018-03-26T11:38:05.176Z,74.60
2018-03-26T11:40:32.783Z,74.80
2018-03-26T11:43:00.357Z,73.90
2018-03-26T11:45:27.980Z,73.30
2018-03-26T11:47:55.594Z,72.80
2018-03-26T11:50:23.225Z,71.80
2018-03-26T11:52:51.559Z,73.00
2018-03-26T11:55:19.183Z,70.10
2018-03-26T11:57:46.795Z,70.20
2018-03-26T12:00:15.193Z,69.70
2018-03-26T12:02:43.593Z,71.40
2018-03-26T12:05:12.230Z,71.40
2018-03-26T12:07:39.858Z,67.90
2018-03-26T12:10:07.630Z,67.50
2018-03-26T12:12:35.254Z,67.90
2018-03-26T12:15:03.936Z,67.40
2018-03-26T12:17:31.627Z,66.90
2018-03-26T12:20:10.938Z,67.10
2018-03-26T12:22:39.308Z,64.20
2018-03-26T12:25:11.772Z,64.10
2018-03-26T12:27:51.314Z,61.50
2018-03-26T12:30:24.830Z,61.40
2018-03-26T12:32:53.234Z,61.40
2018-03-26T12:35:33.393Z,61.20
2018-03-26T12:38:00.985Z,61.20
2018-03-26T12:40:40.299Z,58.70
2018-03-26T12:43:07.955Z,58.70
2018-03-26T12:45:47.553Z,56.70
2018-03-26T12:48:16.807Z,54.00
2018-03-26T12:50:56.274Z,54.00
2018-03-26T12:53:23.889Z,56.30
2018-03-26T12:55:51.573Z,54.40
2018-03-26T12:58:30.899Z,53.80
2018-03-26T13:01:10.490Z,54.00
2018-03-26T13:03:38.081Z,53.70
2018-03-26T13:06:06.492Z,51.60
2018-03-26T13:08:34.122Z,51.60
2018-03-26T13:11:01.780Z,52.90
2018-03-26T13:13:29.362Z,50.70
2018-03-26T13:15:56.995Z,51.10
2018-03-26T13:18:24.642Z,50.60
2018-03-26T13:20:52.213Z,49.60
2018-03-26T13:23:19.836Z,48.90
2018-03-26T13:25:48.251Z,48.60
2018-03-26T13:28:15.897Z,48.60
2018-03-26T13:30:43.591Z,49.30
2018-03-26T13:33:11.211Z,47.50
2018-03-26T13:35:38.804Z,47.70
2018-03-26T13:38:06.409Z,48.20
2018-03-26T13:40:34.102Z,49.40
2018-03-26T13:43:01.826Z,49.80
2018-03-26T13:45:29.442Z,48.20
2018-03-26T13:47:57.820Z,48.90
2018-03-26T13:50:27.081Z,48.80
2018-03-26T13:52:54.744Z,48.80
2018-03-26T13:55:22.385Z,49.00
2018-03-26T13:57:49.999Z,49.00
2018-03-26T14:00:17.613Z,48.40
2018-03-26T14:02:45.255Z,47.80
2018-03-26T14:05:13.621Z,48.00
2018-03-26T14:07:41.275Z,47.50
2018-03-26T14:10:20.728Z,48.20
2018-03-26T14:13:00.057Z,49.30
2018-03-26T14:15:39.471Z,49.30
2018-03-26T14:18:07.174Z,49.00
2018-03-26T14:20:35.006Z,48.90
2018-03-26T14:23:02.647Z,47.30
2018-03-26T14:25:30.545Z,48.40
2018-03-26T14:27:58.209Z,46.70
2018-03-26T14:30:25.950Z,47.30
2018-03-26T14:32:53.608Z,45.60
2018-03-26T15:00:07.323Z,50.70
2018-03-26T15:02:35.061Z,51.30
2018-03-26T15:05:03.584Z,51.50
2018-03-26T15:07:31.976Z,52.20
2018-03-26T15:10:01.082Z,51.80
2018-03-26T15:12:29.529Z,52.70
2018-03-26T15:14:57.144Z,52.70
2018-03-26T15:17:24.826Z,53.20
2018-03-26T15:19:52.505Z,51.70
2018-03-26T15:22:20.959Z,54.70
2018-03-26T15:24:49.478Z,54.70
2018-03-26T15:27:17.156Z,54.40
2018-03-26T15:29:44.782Z,53.90
2018-03-26T15:32:12.441Z,51.70
2018-03-26T15:34:40.097Z,51.90
2018-03-26T15:37:08.533Z,50.90
2018-03-26T15:39:36.139Z,51.40
2018-03-26T15:42:03.858Z,50.30
2018-03-26T15:44:31.553Z,52.50
2018-03-26T15:46:59.220Z,52.40
2018-03-26T15:49:27.351Z,50.30
2018-03-26T15:51:55.069Z,49.60
2018-03-26T15:54:22.904Z,47.10
2018-03-26T15:56:51.034Z,47.10
2018-03-26T15:59:18.731Z,45.30
2018-03-26T16:01:47.192Z,45.50
2018-03-26T16:04:14.996Z,46.80
2018-03-26T16:06:42.919Z,46.90
2018-03-26T16:09:10.567Z,47.40
2018-03-26T16:11:38.437Z,47.50
2018-03-26T16:14:09.435Z,47.30
2018-03-26T16:19:15.435Z,47.20
2018-03-26T16:21:43.814Z,47.50
2018-03-26T16:24:13.049Z,47.00
2018-03-26T16:26:44.881Z,46.80
2018-03-26T16:29:12.519Z,45.90
2018-03-26T16:31:40.984Z,46.80
2018-03-26T16:34:08.673Z,48.20
2018-03-26T16:36:36.407Z,49.50
2018-03-26T16:39:05.122Z,50.70
2018-03-26T16:41:48.308Z,51.00
2018-03-26T16:44:16.004Z,51.00
2018-03-26T16:46:44.449Z,50.90
2018-03-26T16:49:12.199Z,50.80
2018-03-26T16:51:39.832Z,52.50
2018-03-26T16:54:08.453Z,49.50
2018-03-26T16:56:36.049Z,48.80
2018-03-26T16:59:03.683Z,49.70
2018-03-26T17:01:34.679Z,51.30
2018-03-26T17:04:02.317Z,53.50
2018-03-26T17:06:29.955Z,55.60
2018-03-26T17:09:00.211Z,58.10
2018-03-26T17:11:27.812Z,59.50
2018-03-26T17:13:56.746Z,62.10
2018-03-26T17:16:24.409Z,62.10
2018-03-26T17:18:52.120Z,63.70
2018-03-26T17:21:19.739Z,64.00
2018-03-26T17:23:47.376Z,64.80
2018-03-26T17:26:15.759Z,66.50
2018-03-26T17:28:44.140Z,67.70
2018-03-26T17:31:12.741Z,68.30
2018-03-26T17:33:40.341Z,69.00
2018-03-26T17:36:07.949Z,69.90
2018-03-26T17:38:35.631Z,70.50
2018-03-26T17:41:03.376Z,70.90
2018-03-26T17:43:31.056Z,68.80
2018-03-26T17:45:58.833Z,68.10
2018-03-26T17:48:26.935Z,68.20
2018-03-26T17:50:54.985Z,70.50
2018-03-26T17:53:22.721Z,71.00
2018-03-26T17:55:50.406Z,71.40
2018-03-26T17:58:19.080Z,71.70
2018-03-26T18:00:46.761Z,72.20
2018-03-26T18:03:14.423Z,72.50
2018-03-26T18:05:42.444Z,72.80
2018-03-26T18:08:10.146Z,73.30
2018-03-26T18:10:38.368Z,73.90
2018-03-26T18:13:07.164Z,74.10
2018-03-26T18:15:35.076Z,74.30
2018-03-26T18:18:02.901Z,74.50
2018-03-26T18:20:30.645Z,74.70
2018-03-26T18:22:58.329Z,74.60
2018-03-26T18:25:25.990Z,74.40
2018-03-26T18:27:54.487Z,75.10
2018-03-26T18:30:22.905Z,75.80
2018-03-26T18:32:50.720Z,75.80
2018-03-26T18:35:18.389Z,75.90
2018-03-26T18:37:46.171Z,76.00
2018-03-26T18:40:14.656Z,76.90
2018-03-26T18:42:43.371Z,77.10
2018-03-26T18:45:13.362Z,77.10
2018-03-26T18:47:45.260Z,77.50
2018-03-26T18:50:13.578Z,78.20
2018-03-26T18:52:42.360Z,78.70
2018-03-26T18:55:10.982Z,78.70
2018-03-26T18:57:41.740Z,79.00
2018-03-26T19:00:09.848Z,79.10
2018-03-26T19:02:37.654Z,79.40
2018-03-26T19:05:05.616Z,79.40
2018-03-26T19:07:33.529Z,79.20
2018-03-26T19:10:01.176Z,79.10
2018-03-26T19:12:28.949Z,79.20
2018-03-26T19:14:56.697Z,79.40
2018-03-26T19:17:24.583Z,79.40
2018-03-26T19:19:52.293Z,79.40
2018-03-26T19:22:20.163Z,79.70
2018-03-26T19:24:48.729Z,80.20
2018-03-26T19:27:16.437Z,80.10
2018-03-26T19:29:44.181Z,80.30
2018-03-26T19:32:11.858Z,80.20
2018-03-26T19:34:39.717Z,80.20
2018-03-26T19:37:07.566Z,80.20
2018-03-26T19:39:36.386Z,80.50
2018-03-26T19:42:04.168Z,80.40
2018-03-26T19:44:32.144Z,80.20
2018-03-26T19:46:59.770Z,80.10
2018-03-26T19:49:27.373Z,80.20
2018-03-26T19:51:55.057Z,79.40
2018-03-26T19:54:22.699Z,79.70
2018-03-26T19:56:50.327Z,79.60
2018-03-26T19:59:18.763Z,79.10
2018-03-26T20:01:46.422Z,79.10
2018-03-26T20:04:14.218Z,79.30
2018-03-26T20:06:41.929Z,79.80
2018-03-26T20:09:10.594Z,80.20
2018-03-26T20:11:38.259Z,80.20
2018-03-26T20:14:05.980Z,80.30
2018-03-26T20:16:33.657Z,80.40
2018-03-26T20:19:01.360Z,80.70
2018-03-26T20:21:29.086Z,81.10
2018-03-26T20:23:56.710Z,81.60
2018-03-26T20:26:24.331Z,81.50
2018-03-26T20:28:52.056Z,81.70
2018-03-26T20:31:19.712Z,81.90
2018-03-26T20:33:48.185Z,82.60
2018-03-26T20:36:15.870Z,82.60
2018-03-26T20:38:43.686Z,82.60
2018-03-26T20:41:11.445Z,83.20
2018-03-26T20:43:39.171Z,83.30
2018-03-26T20:46:07.703Z,83.80
2018-03-26T20:48:35.341Z,83.60
2018-03-26T20:51:03.073Z,83.80
2018-03-26T20:53:30.722Z,84.20
2018-03-26T20:55:59.843Z,84.10
2018-03-26T20:58:27.517Z,84.30
2018-03-26T21:00:55.961Z,84.70
2018-03-26T21:03:23.608Z,84.70
2018-03-26T21:05:51.197Z,84.80
2018-03-26T21:08:18.850Z,84.90
2018-03-26T21:10:46.498Z,85.20
2018-03-26T21:13:14.914Z,85.80
2018-03-26T21:15:42.608Z,85.80
2018-03-26T21:18:10.296Z,85.90
2018-03-26T21:20:38.715Z,86.30
2018-03-26T21:23:06.358Z,86.20
2018-03-26T21:25:34.110Z,86.40
2018-03-26T21:28:01.809Z,86.90
2018-03-26T21:30:30.309Z,87.70
2018-03-26T21:32:57.980Z,87.10
2018-03-26T21:35:25.653Z,87.80
2018-03-26T21:37:53.311Z,87.70
2018-03-26T21:40:20.917Z,87.70
2018-03-26T21:42:48.524Z,88.30
2018-03-26T21:45:16.900Z,89.00
2018-03-26T21:47:45.293Z,88.60
2018-03-26T21:50:13.657Z,88.90
2018-03-26T21:52:42.031Z,89.20
2018-03-26T21:55:09.630Z,88.90
2018-03-26T21:57:38.011Z,89.20
2018-03-26T22:00:21.736Z,89.60
2018-03-26T22:02:50.215Z,89.70
2018-03-26T22:05:18.684Z,89.80
2018-03-26T22:07:47.083Z,90.10
2018-03-26T22:10:14.774Z,90.10
2018-03-26T22:12:42.478Z,90.10
2018-03-26T22:15:10.179Z,90.20
2018-03-26T22:17:38.595Z,90.00
2018-03-26T22:20:06.223Z,90.00
2018-03-26T22:22:33.885Z,90.10
2018-03-26T22:25:01.512Z,90.10
2018-03-26T22:27:29.107Z,90.30
2018-03-26T22:29:56.762Z,90.30
2018-03-26T22:32:24.394Z,90.70
2018-03-26T22:34:52.022Z,90.50
2018-03-26T22:37:19.653Z,90.70
2018-03-26T22:39:47.314Z,90.60
2018-03-26T22:42:14.931Z,90.80
2018-03-26T22:44:42.595Z,90.40
2018-03-26T22:47:10.213Z,90.60
2018-03-26T22:49:37.869Z,91.20
2018-03-26T22:52:05.557Z,91.10
2018-03-26T22:54:33.145Z,91.10
2018-03-26T22:57:00.782Z,90.80
2018-03-26T22:59:28.421Z,90.80
2018-03-26T23:01:56.117Z,91.20
2018-03-26T23:04:23.741Z,91.20
2018-03-26T23:06:52.146Z,91.00
2018-03-26T23:09:19.741Z,90.90
2018-03-26T23:11:47.321Z,91.00
2018-03-26T23:14:14.921Z,91.20
2018-03-26T23:16:42.742Z,90.90
2018-03-26T23:19:10.329Z,90.90
2018-03-26T23:21:37.912Z,90.90
2018-03-26T23:24:06.307Z,90.90
2018-03-26T23:26:34.658Z,90.90
2018-03-26T23:29:02.239Z,90.90
2018-03-26T23:31:30.594Z,90.80
2018-03-26T23:33:58.198Z,90.80
2018-03-26T23:36:26.512Z,91.20
2018-03-26T23:38:54.080Z,91.20
2018-03-26T23:41:21.646Z,91.20
2018-03-26T23:43:49.228Z,91.40
2018-03-26T23:46:16.821Z,91.40
2018-03-26T23:48:44.461Z,91.80
2018-03-26T23:51:12.030Z,91.80
2018-03-26T23:53:39.594Z,91.80
2018-03-26T23:56:07.203Z,91.70
2018-03-26T23:58:34.819Z,91.60
